createdAt,value
2019-05-29T00:00:25.818Z,11.91
2019-05-29T00:02:57.008Z,12.12
2019-05-29T00:05:28.215Z,12.12
2019-05-29T00:07:59.319Z,11.74
2019-05-29T00:10:30.541Z,11.57
2019-05-29T00:13:01.987Z,11.99
2019-05-29T00:15:33.113Z,12.06
2019-05-29T00:18:04.438Z,12.04
2019-05-29T00:20:35.654Z,12.05
2019-05-29T00:23:06.907Z,12.19
2019-05-29T00:25:38.064Z,12.25
2019-05-29T00:28:10.612Z,12.23
2019-05-29T00:30:41.977Z,11.81
2019-05-29T00:33:14.402Z,11.98
2019-05-29T00:35:46.786Z,12.13
2019-05-29T00:38:17.923Z,12.07
2019-05-29T00:40:49.154Z,12.08
2019-05-29T00:43:20.393Z,12.32
2019-05-29T00:45:51.795Z,12.01
2019-05-29T00:48:23.191Z,12.23
2019-05-29T00:50:54.433Z,12.08
2019-05-29T00:53:25.724Z,12.23
2019-05-29T00:55:57.054Z,12.25
2019-05-29T00:58:28.254Z,12.17
2019-05-29T01:00:59.964Z,12.23
2019-05-29T01:03:31.130Z,12.15
2019-05-29T01:06:02.468Z,12.14
2019-05-29T01:08:33.641Z,12.28
2019-05-29T01:11:04.831Z,12.12
2019-05-29T01:13:36.016Z,12.05
2019-05-29T01:16:07.400Z,12.16
2019-05-29T01:18:38.634Z,12.16
2019-05-29T01:21:09.904Z,12.19
2019-05-29T01:23:41.152Z,12.04
2019-05-29T01:26:12.485Z,12.02
2019-05-29T01:28:43.784Z,12.06
2019-05-29T01:31:15.223Z,12.00
2019-05-29T01:33:46.631Z,11.88
2019-05-29T01:36:18.048Z,12.08
2019-05-29T01:38:49.372Z,11.82
2019-05-29T01:41:21.463Z,11.71
2019-05-29T01:43:52.689Z,11.96
2019-05-29T01:46:23.988Z,11.73
2019-05-29T01:48:55.128Z,11.70
2019-05-29T01:51:27.964Z,11.82
2019-05-29T01:53:59.272Z,11.81
2019-05-29T01:56:30.572Z,11.79
2019-05-29T01:59:01.806Z,11.87
2019-05-29T02:01:33.060Z,11.78
2019-05-29T02:04:04.317Z,11.86
2019-05-29T02:06:35.434Z,11.72
2019-05-29T02:09:08.106Z,11.95
2019-05-29T02:11:39.363Z,12.03
2019-05-29T02:14:11.527Z,11.68
2019-05-29T02:16:42.687Z,11.73
2019-05-29T02:19:13.829Z,11.82
2019-05-29T02:21:45.089Z,11.79
2019-05-29T02:24:17.013Z,11.85
2019-05-29T02:26:48.347Z,11.75
2019-05-29T02:29:20.805Z,11.89
2019-05-29T02:31:52.170Z,11.85
2019-05-29T02:34:25.536Z,11.90
2019-05-29T02:36:56.432Z,11.81
2019-05-29T02:39:29.218Z,11.69
2019-05-29T02:42:00.578Z,11.70
2019-05-29T02:44:31.727Z,11.83
2019-05-29T02:47:03.047Z,11.65
2019-05-29T02:49:34.600Z,11.78
2019-05-29T02:52:06.141Z,11.53
2019-05-29T02:54:37.559Z,11.51
2019-05-29T02:57:08.843Z,11.60
2019-05-29T02:59:40.083Z,11.48
2019-05-29T03:02:11.229Z,11.51
2019-05-29T03:04:42.386Z,11.58
2019-05-29T03:07:13.697Z,11.55
2019-05-29T03:09:45.247Z,11.73
2019-05-29T03:12:16.500Z,11.60
2019-05-29T03:14:47.826Z,11.50
2019-05-29T03:17:19.041Z,11.70
2019-05-29T03:19:50.181Z,11.61
2019-05-29T03:22:21.415Z,11.73
2019-05-29T03:24:53.660Z,11.63
2019-05-29T03:27:25.673Z,11.77
2019-05-29T03:29:56.859Z,11.74
2019-05-29T03:32:31.804Z,11.45
2019-05-29T03:35:01.163Z,11.61
2019-05-29T03:37:32.502Z,11.56
2019-05-29T03:40:04.320Z,11.63
2019-05-29T03:42:35.645Z,11.77
2019-05-29T03:45:07.373Z,11.70
2019-05-29T03:47:38.617Z,11.70
2019-05-29T03:50:10.056Z,11.65
2019-05-29T03:52:41.460Z,11.76
2019-05-29T03:55:12.852Z,11.87
2019-05-29T03:57:44.112Z,11.97
2019-05-29T04:00:16.845Z,12.06
2019-05-29T04:02:48.165Z,12.13
2019-05-29T04:05:19.560Z,11.85
2019-05-29T04:07:51.788Z,12.02
2019-05-29T04:10:32.889Z,12.07
2019-05-29T04:13:03.450Z,11.98
2019-05-29T04:15:36.609Z,11.95
2019-05-29T04:18:08.738Z,11.88
2019-05-29T04:20:40.120Z,12.10
2019-05-29T04:23:11.302Z,12.16
2019-05-29T04:25:43.305Z,12.08
2019-05-29T04:28:14.669Z,12.05
2019-05-29T04:30:45.925Z,11.82
2019-05-29T04:33:17.115Z,11.83
2019-05-29T04:35:48.374Z,11.80
2019-05-29T04:38:19.803Z,11.82
2019-05-29T04:40:51.254Z,11.85
2019-05-29T04:43:22.591Z,11.57
2019-05-29T04:45:53.905Z,11.44
2019-05-29T04:48:25.149Z,11.57
2019-05-29T04:50:56.421Z,11.60
2019-05-29T04:53:29.438Z,11.75
2019-05-29T04:56:00.602Z,11.59
2019-05-29T04:58:32.793Z,11.59
2019-05-29T05:01:03.967Z,11.15
2019-05-29T05:03:35.237Z,11.46
2019-05-29T05:06:06.671Z,11.57
2019-05-29T05:08:37.874Z,11.62
2019-05-29T05:11:11.465Z,11.52
2019-05-29T05:13:42.716Z,11.61
2019-05-29T05:16:13.960Z,11.78
2019-05-29T05:18:46.100Z,11.85
2019-05-29T05:21:17.262Z,11.63
2019-05-29T05:23:48.492Z,11.78
2019-05-29T05:26:19.663Z,11.35
2019-05-29T05:28:50.938Z,11.62
2019-05-29T05:31:22.115Z,11.65
2019-05-29T05:33:53.327Z,11.81
2019-05-29T05:36:24.508Z,11.65
2019-05-29T05:38:55.722Z,11.47
2019-05-29T05:41:26.855Z,11.44
2019-05-29T05:43:58.040Z,11.50
2019-05-29T05:46:29.490Z,11.52
2019-05-29T05:49:00.597Z,11.59
2019-05-29T05:51:33.361Z,11.52
2019-05-29T05:54:04.860Z,11.74
2019-05-29T05:56:35.951Z,11.70
2019-05-29T05:59:07.166Z,11.56
2019-05-29T06:01:38.394Z,11.83
2019-05-29T06:04:09.631Z,11.96
2019-05-29T06:06:42.247Z,12.02
2019-05-29T06:09:13.581Z,12.21
2019-05-29T06:11:44.863Z,12.23
2019-05-29T06:14:16.048Z,11.95
2019-05-29T06:16:47.271Z,12.04
2019-05-29T06:19:18.402Z,12.18
2019-05-29T06:21:49.764Z,12.28
2019-05-29T06:24:21.037Z,12.18
2019-05-29T06:26:52.414Z,12.29
2019-05-29T06:29:24.873Z,12.13
2019-05-29T06:31:56.419Z,12.28
2019-05-29T06:34:27.751Z,12.27
2019-05-29T06:36:58.958Z,12.14
2019-05-29T06:39:30.319Z,12.07
2019-05-29T06:42:01.586Z,12.24
2019-05-29T06:44:34.279Z,12.25
2019-05-29T06:47:05.771Z,12.36
2019-05-29T06:49:37.954Z,11.90
2019-05-29T06:52:09.380Z,12.09
2019-05-29T06:54:41.918Z,12.27
2019-05-29T06:57:13.202Z,12.46
2019-05-29T06:59:45.262Z,12.71
2019-05-29T07:02:16.561Z,12.87
2019-05-29T07:04:47.878Z,12.82
2019-05-29T07:07:19.177Z,12.65
2019-05-29T07:09:50.322Z,12.98
2019-05-29T07:12:21.489Z,12.89
2019-05-29T07:14:52.667Z,12.67
2019-05-29T07:17:23.961Z,12.88
2019-05-29T07:20:03.397Z,12.76
2019-05-29T07:22:27.951Z,12.60
2019-05-29T07:24:59.131Z,12.93
2019-05-29T07:27:30.751Z,12.89
2019-05-29T07:30:01.974Z,12.63
2019-05-29T07:32:34.262Z,12.71
2019-05-29T07:35:05.815Z,12.52
2019-05-29T07:37:37.682Z,12.78
2019-05-29T07:40:09.338Z,12.92
2019-05-29T07:42:45.336Z,12.98
2019-05-29T07:45:15.166Z,13.21
2019-05-29T07:47:46.807Z,13.46
2019-05-29T07:50:18.168Z,13.57
2019-05-29T07:52:49.476Z,13.24
2019-05-29T07:55:23.655Z,13.21
2019-05-29T07:57:53.612Z,13.05
2019-05-29T08:00:35.159Z,13.24
2019-05-29T08:53:33.982Z,13.61
2019-05-29T08:56:05.842Z,13.61
2019-05-29T08:58:37.835Z,13.58
2019-05-29T09:01:09.359Z,13.68
2019-05-29T09:03:40.491Z,14.04
2019-05-29T09:06:13.661Z,13.97
2019-05-29T09:08:46.210Z,13.52
2019-05-29T09:11:17.565Z,13.56
2019-05-29T09:13:48.869Z,13.38
2019-05-29T09:16:20.158Z,13.34
2019-05-29T09:18:51.377Z,13.57
2019-05-29T09:21:26.445Z,13.46
2019-05-29T09:23:58.628Z,13.76
2019-05-29T09:26:28.736Z,13.91
2019-05-29T09:28:59.956Z,14.20
2019-05-29T09:31:31.028Z,14.16
2019-05-29T09:34:02.181Z,13.91
2019-05-29T09:36:33.331Z,13.98
2019-05-29T09:39:05.870Z,13.87
2019-05-29T09:41:37.165Z,14.06
2019-05-29T09:44:08.819Z,14.04
2019-05-29T09:46:40.271Z,14.16
2019-05-29T09:49:11.511Z,14.10
2019-05-29T09:51:42.798Z,14.23
2019-05-29T09:54:14.056Z,14.08
2019-05-29T09:56:45.205Z,14.06
2019-05-29T09:59:17.639Z,14.09
2019-05-29T10:01:48.950Z,14.30
2019-05-29T10:04:20.041Z,13.96
2019-05-29T10:06:51.352Z,13.88
2019-05-29T10:09:22.703Z,13.86
2019-05-29T10:11:58.013Z,13.99
2019-05-29T10:14:26.892Z,14.02
2019-05-29T10:16:59.224Z,14.08
2019-05-29T10:19:31.061Z,14.26
2019-05-29T10:22:03.935Z,14.22
2019-05-29T10:24:35.335Z,14.14
2019-05-29T10:27:06.938Z,14.05
2019-05-29T10:29:38.247Z,14.18
2019-05-29T10:32:09.504Z,14.15
2019-05-29T10:34:42.159Z,14.07
2019-05-29T10:37:13.642Z,14.17
2019-05-29T10:39:44.834Z,14.00
2019-05-29T10:42:20.340Z,13.88
2019-05-29T10:44:49.266Z,14.19
2019-05-29T10:47:20.542Z,13.89
2019-05-29T10:49:51.850Z,13.46
2019-05-29T10:52:23.627Z,13.35
2019-05-29T10:54:54.928Z,13.66
2019-05-29T10:57:26.509Z,13.67
2019-05-29T10:59:57.756Z,13.86
2019-05-29T11:02:29.041Z,13.81
2019-05-29T11:05:00.334Z,13.85
2019-05-29T11:07:31.570Z,14.05
2019-05-29T11:10:02.912Z,13.89
2019-05-29T11:12:34.267Z,13.80
2019-05-29T11:15:20.845Z,13.74
2019-05-29T11:17:39.784Z,13.64
2019-05-29T11:20:11.823Z,14.01
2019-05-29T11:22:43.136Z,14.08
2019-05-29T11:25:23.371Z,14.72
2019-05-29T11:27:50.349Z,14.93
2019-05-29T11:30:22.236Z,14.44
2019-05-29T11:32:55.606Z,14.75
2019-05-29T11:35:26.442Z,14.79
2019-05-29T11:37:58.871Z,14.73
2019-05-29T11:40:30.967Z,14.83
2019-05-29T11:43:03.214Z,14.79
2019-05-29T11:45:35.851Z,14.93
2019-05-29T11:48:07.675Z,15.02
2019-05-29T11:50:38.939Z,15.31
2019-05-29T11:53:10.205Z,15.01
2019-05-29T11:55:41.453Z,15.15
2019-05-29T11:58:29.772Z,15.21
2019-05-29T12:00:45.715Z,15.16
2019-05-29T12:03:16.925Z,15.13
2019-05-29T12:05:48.296Z,15.20
2019-05-29T12:08:19.410Z,15.39
2019-05-29T12:10:51.288Z,14.91
2019-05-29T12:13:22.859Z,14.81
2019-05-29T12:15:54.162Z,14.99
2019-05-29T12:18:25.428Z,15.06
2019-05-29T12:20:58.282Z,15.06
2019-05-29T12:23:29.535Z,15.07
2019-05-29T12:26:20.965Z,14.67
2019-05-29T12:28:33.884Z,15.11
2019-05-29T12:31:05.068Z,14.88
2019-05-29T12:33:36.407Z,15.00
2019-05-29T12:36:07.727Z,15.11
2019-05-29T12:38:38.971Z,14.83
2019-05-29T12:41:10.300Z,14.96
2019-05-29T12:43:41.456Z,15.42
2019-05-29T12:46:12.710Z,15.07
2019-05-29T12:48:44.012Z,15.10
2019-05-29T12:51:15.268Z,15.22
2019-05-29T12:53:46.537Z,15.21
2019-05-29T12:56:17.800Z,15.20
2019-05-29T12:58:49.083Z,14.97
2019-05-29T13:01:20.371Z,14.88
2019-05-29T13:03:51.700Z,14.57
2019-05-29T13:06:23.197Z,13.94
2019-05-29T13:08:54.717Z,13.84
2019-05-29T13:11:26.074Z,14.01
2019-05-29T13:13:58.381Z,13.95
2019-05-29T13:16:29.822Z,13.73
2019-05-29T13:19:01.157Z,13.33
2019-05-29T13:21:32.581Z,13.21
2019-05-29T13:24:08.014Z,13.17
2019-05-29T13:26:36.953Z,12.99
2019-05-29T13:29:08.663Z,13.24
2019-05-29T13:31:42.613Z,13.28
2019-05-29T13:34:13.981Z,13.17
2019-05-29T13:36:45.386Z,13.44
2019-05-29T13:39:16.658Z,13.61
2019-05-29T13:41:47.947Z,13.44
2019-05-29T13:44:19.243Z,13.79
2019-05-29T13:46:50.539Z,13.12
2019-05-29T13:49:21.746Z,12.98
2019-05-29T13:51:53.096Z,13.48
2019-05-29T13:54:24.464Z,13.30
2019-05-29T13:56:55.796Z,13.41
2019-05-29T13:59:27.101Z,13.43
2019-05-29T14:01:58.533Z,13.63
2019-05-29T14:04:29.729Z,13.73
2019-05-29T14:07:01.023Z,13.44
2019-05-29T14:09:32.405Z,13.87
2019-05-29T14:12:05.080Z,13.78
2019-05-29T14:14:36.485Z,13.56
2019-05-29T14:17:08.786Z,13.71
2019-05-29T14:19:40.132Z,13.94
2019-05-29T14:22:11.412Z,13.88
2019-05-29T14:24:42.778Z,13.70
2019-05-29T14:27:13.931Z,13.70
2019-05-29T14:29:45.248Z,13.74
2019-05-29T14:32:16.372Z,13.84
2019-05-29T14:34:48.605Z,13.91
2019-05-29T14:37:19.799Z,14.34
2019-05-29T14:39:51.031Z,13.81
2019-05-29T14:42:22.386Z,13.90
2019-05-29T14:44:53.601Z,13.97
2019-05-29T14:47:24.952Z,13.78
2019-05-29T14:49:56.220Z,13.80
2019-05-29T14:52:27.393Z,13.78
2019-05-29T14:54:58.713Z,13.77
2019-05-29T14:57:29.989Z,13.78
2019-05-29T15:00:03.542Z,14.01
2019-05-29T15:02:34.315Z,13.94
2019-05-29T15:05:07.730Z,13.98
2019-05-29T15:07:39.259Z,13.86
2019-05-29T15:10:22.661Z,13.92
2019-05-29T15:12:45.009Z,13.88
2019-05-29T15:15:16.965Z,13.86
2019-05-29T15:17:48.579Z,13.84
2019-05-29T15:20:20.098Z,13.91
2019-05-29T15:22:51.982Z,13.81
2019-05-29T15:25:24.468Z,13.95
2019-05-29T15:27:55.676Z,13.98
2019-05-29T15:30:26.931Z,13.98
2019-05-29T15:32:58.405Z,14.06
2019-05-29T15:35:29.626Z,14.09
2019-05-29T15:38:00.753Z,14.14
2019-05-29T15:40:32.091Z,14.54
2019-05-29T15:43:03.371Z,13.76
2019-05-29T15:45:34.562Z,14.09
2019-05-29T15:48:06.977Z,14.38
2019-05-29T15:50:38.498Z,14.21
2019-05-29T15:53:10.933Z,14.26
2019-05-29T15:55:42.326Z,14.45
2019-05-29T15:58:13.541Z,14.45
2019-05-29T16:00:44.759Z,14.58
2019-05-29T16:03:15.960Z,14.75
2019-05-29T16:05:47.268Z,14.74
2019-05-29T16:08:18.455Z,14.73
2019-05-29T16:10:49.717Z,14.47
2019-05-29T16:13:20.963Z,14.68
2019-05-29T16:15:52.194Z,14.76
2019-05-29T16:18:29.147Z,14.69
2019-05-29T16:20:56.989Z,14.54
2019-05-29T16:23:35.643Z,14.62
2019-05-29T16:26:01.035Z,14.64
2019-05-29T16:28:32.135Z,14.34
2019-05-29T16:31:03.321Z,14.37
2019-05-29T16:33:34.459Z,15.26
2019-05-29T16:36:05.808Z,15.48
2019-05-29T16:38:37.057Z,15.38
2019-05-29T16:41:08.213Z,15.47
2019-05-29T16:43:39.588Z,15.45
2019-05-29T16:46:14.188Z,15.23
2019-05-29T16:48:43.675Z,15.23
2019-05-29T16:51:14.920Z,15.26
2019-05-29T16:53:45.981Z,15.30
2019-05-29T16:56:16.980Z,15.29
2019-05-29T16:58:48.212Z,15.29
2019-05-29T17:01:19.566Z,15.03
2019-05-29T17:03:51.126Z,15.06
2019-05-29T17:06:22.595Z,14.95
2019-05-29T17:08:55.333Z,14.95
2019-05-29T17:11:28.959Z,14.92
2019-05-29T17:14:02.139Z,14.72
2019-05-29T17:16:33.735Z,14.95
2019-05-29T17:19:06.176Z,14.82
2019-05-29T17:21:37.425Z,14.74
2019-05-29T17:24:08.894Z,14.64
2019-05-29T17:26:40.096Z,14.70
2019-05-29T17:29:11.179Z,14.68
2019-05-29T17:31:42.226Z,14.48
2019-05-29T17:34:14.839Z,14.73
2019-05-29T17:36:46.210Z,14.72
2019-05-29T17:39:17.446Z,14.52
2019-05-29T17:41:48.708Z,14.64
2019-05-29T17:44:19.854Z,14.58
2019-05-29T17:46:51.020Z,14.68
2019-05-29T17:49:32.221Z,14.62
2019-05-29T17:51:55.064Z,14.53
2019-05-29T17:54:26.461Z,14.54
2019-05-29T17:56:59.109Z,14.44
2019-05-29T17:59:30.328Z,14.38
2019-05-29T18:02:01.436Z,14.35
2019-05-29T18:04:32.626Z,14.57
2019-05-29T18:07:03.726Z,14.49
2019-05-29T18:09:35.341Z,14.47
2019-05-29T18:12:06.587Z,14.46
2019-05-29T18:14:38.311Z,14.45
2019-05-29T18:17:09.890Z,14.37
2019-05-29T18:19:41.186Z,14.35
2019-05-29T18:22:12.517Z,14.47
2019-05-29T18:24:43.686Z,14.35
2019-05-29T18:27:14.896Z,14.65
2019-05-29T18:29:46.245Z,14.44
2019-05-29T18:32:18.546Z,14.50
2019-05-29T18:34:53.683Z,14.80
2019-05-29T18:37:24.093Z,14.82
2019-05-29T18:39:55.574Z,14.67
2019-05-29T18:42:27.349Z,14.61
2019-05-29T18:44:58.773Z,14.76
2019-05-29T18:47:29.871Z,14.62
2019-05-29T18:50:02.351Z,14.52
2019-05-29T18:52:33.504Z,14.50
2019-05-29T18:55:05.198Z,14.47
2019-05-29T18:57:36.377Z,14.41
2019-05-29T19:00:08.245Z,14.51
2019-05-29T19:02:39.737Z,14.32
2019-05-29T19:05:12.254Z,14.25
2019-05-29T19:07:43.484Z,14.36
2019-05-29T19:10:16.264Z,14.34
2019-05-29T19:12:47.409Z,14.46
2019-05-29T19:15:19.049Z,14.44
2019-05-29T19:17:50.290Z,14.27
2019-05-29T19:20:22.224Z,14.45
2019-05-29T19:22:53.605Z,14.23
2019-05-29T19:25:24.925Z,14.50
2019-05-29T19:27:56.062Z,14.31
2019-05-29T19:30:29.274Z,14.37
2019-05-29T19:33:00.727Z,14.18
2019-05-29T19:35:31.940Z,14.08
2019-05-29T19:38:03.190Z,14.29
2019-05-29T19:40:34.693Z,14.17
2019-05-29T19:43:15.382Z,14.32
2019-05-29T19:45:46.758Z,14.17
2019-05-29T19:48:17.852Z,14.06
2019-05-29T19:50:48.995Z,14.51
2019-05-29T19:53:20.229Z,14.67
2019-05-29T19:55:51.501Z,14.35
2019-05-29T19:58:22.783Z,14.57
2019-05-29T20:00:53.937Z,14.69
2019-05-29T20:03:26.320Z,14.64
2019-05-29T20:05:57.998Z,14.53
2019-05-29T20:08:32.635Z,14.45
2019-05-29T20:11:01.983Z,14.61
2019-05-29T20:13:33.762Z,14.70
2019-05-29T20:16:05.030Z,14.05
2019-05-29T20:18:36.230Z,14.44
2019-05-29T20:21:07.419Z,14.42
2019-05-29T20:23:38.928Z,14.34
2019-05-29T20:26:10.114Z,14.04
2019-05-29T20:28:42.348Z,14.12
2019-05-29T20:31:13.862Z,14.06
2019-05-29T20:33:45.047Z,14.06
2019-05-29T20:36:16.296Z,13.97
2019-05-29T20:38:47.399Z,14.04
2019-05-29T20:41:18.488Z,13.93
2019-05-29T20:43:49.532Z,14.20
2019-05-29T20:46:20.635Z,13.99
2019-05-29T20:48:51.661Z,13.92
2019-05-29T20:51:22.800Z,13.74
2019-05-29T20:53:53.847Z,13.82
2019-05-29T20:56:25.050Z,13.87
2019-05-29T20:58:56.318Z,13.74
2019-05-29T21:01:27.537Z,13.78
2019-05-29T21:03:58.614Z,13.83
2019-05-29T21:06:29.735Z,14.06
2019-05-29T21:09:00.896Z,13.87
2019-05-29T21:11:33.407Z,13.95
2019-05-29T21:14:04.665Z,13.77
2019-05-29T21:16:35.834Z,13.78
2019-05-29T21:19:06.969Z,13.57
2019-05-29T21:21:38.322Z,13.65
2019-05-29T21:24:09.629Z,13.70
2019-05-29T21:26:41.054Z,13.80
2019-05-29T21:29:12.255Z,13.75
2019-05-29T21:31:45.677Z,13.70
2019-05-29T21:34:16.808Z,13.62
2019-05-29T21:36:47.947Z,13.45
2019-05-29T21:39:19.147Z,13.39
2019-05-29T21:41:50.329Z,13.39
2019-05-29T21:44:21.424Z,13.39
2019-05-29T21:46:53.418Z,13.58
2019-05-29T21:49:24.615Z,13.51
2019-05-29T21:51:55.766Z,13.43
2019-05-29T21:54:26.890Z,13.45
2019-05-29T21:56:58.152Z,13.37
2019-05-29T21:59:29.177Z,13.40
2019-05-29T22:02:00.490Z,13.45
2019-05-29T22:04:31.670Z,13.52
2019-05-29T22:07:02.850Z,13.49
2019-05-29T22:09:33.944Z,13.60
2019-05-29T22:12:05.391Z,13.59
2019-05-29T22:14:36.634Z,13.60
2019-05-29T22:17:07.804Z,13.62
2019-05-29T22:19:39.038Z,13.53
2019-05-29T22:22:10.137Z,13.63
2019-05-29T22:24:41.294Z,13.54
2019-05-29T22:27:12.487Z,13.84
2019-05-29T22:29:43.618Z,13.63
2019-05-29T22:32:14.737Z,13.60
2019-05-29T22:34:45.970Z,13.77
2019-05-29T22:37:17.006Z,13.67
2019-05-29T22:39:48.088Z,13.88
2019-05-29T22:42:19.198Z,13.79
2019-05-29T22:44:51.523Z,13.81
2019-05-29T22:47:22.657Z,13.82
2019-05-29T22:49:54.024Z,13.96
2019-05-29T22:52:25.332Z,13.82
2019-05-29T22:54:57.878Z,13.94
2019-05-29T22:57:29.196Z,13.55
2019-05-29T23:00:00.353Z,13.57
2019-05-29T23:02:31.490Z,13.59
2019-05-29T23:05:03.704Z,13.48
2019-05-29T23:07:36.181Z,13.61
2019-05-29T23:10:08.703Z,13.62
2019-05-29T23:12:39.846Z,13.42
2019-05-29T23:15:11.524Z,13.36
2019-05-29T23:17:42.699Z,13.35
2019-05-29T23:20:15.502Z,13.41
2019-05-29T23:22:46.675Z,13.33
2019-05-29T23:25:17.883Z,13.39
2019-05-29T23:27:49.149Z,13.37
2019-05-29T23:30:21.524Z,13.29
2019-05-29T23:32:52.908Z,13.31
2019-05-29T23:35:24.330Z,13.39
2019-05-29T23:37:55.424Z,13.32
2019-05-29T23:40:26.577Z,13.16
2019-05-29T23:42:57.681Z,13.33
2019-05-29T23:45:28.888Z,13.27
2019-05-29T23:48:00.080Z,13.15
2019-05-29T23:50:31.280Z,13.22
2019-05-29T23:53:02.322Z,13.16
2019-05-29T23:55:33.640Z,13.23
2019-05-29T23:58:08.185Z,13.31
